Time;durP1;ratioP1;P1;durP2;ratioP2;P2;SDS_P1;SDS_P2;PMS_P1;PMS_P2;Temp;Humidity;BMP_temperature;BMP_pressure;BME280_temperature;BME280_humidity;BME280_pressure;Samples;Min_cycle;Max_cycle;Signal;HPM_P1;HPM_P2
2022/07/14 00:02:05;;;;;;;1.60;1.05;;;;;;;;;;4987399;28;20101;-56
2022/07/14 00:04:31;;;;;;;1.10;0.90;;;;;;;;;;4992143;28;20403;-55
2022/07/14 00:06:57;;;;;;;2.47;0.90;;;;;;;;;;4993034;28;20483;-54
2022/07/14 00:09:23;;;;;;;1.50;0.80;;;;;;;;;;4990740;28;20023;-54
2022/07/14 00:11:49;;;;;;;0.88;0.73;;;;;;;;;;4991629;28;20510;-55
2022/07/14 00:14:15;;;;;;;2.25;0.88;;;;;;;;;;4990510;28;20030;-52
2022/07/14 00:16:41;;;;;;;1.60;0.90;;;;;;;;;;4993426;28;20026;-54
2022/07/14 00:19:07;;;;;;;1.92;1.00;;;;;;;;;;4991015;28;20065;-55
2022/07/14 00:21:33;;;;;;;2.20;1.00;;;;;;;;;;4990008;28;20380;-52
2022/07/14 00:23:59;;;;;;;0.70;0.60;;;;;;;;;;4991982;28;20128;-54
2022/07/14 00:26:25;;;;;;;1.42;0.98;;;;;;;;;;4993447;28;20019;-54
2022/07/14 00:28:51;;;;;;;1.45;0.93;;;;;;;;;;4989812;28;20050;-52
2022/07/14 00:31:17;;;;;;;1.30;1.13;;;;;;;;;;4992864;28;20026;-51
2022/07/14 00:33:43;;;;;;;1.65;1.00;;;;;;;;;;4992429;28;20029;-53
2022/07/14 00:36:09;;;;;;;1.50;1.02;;;;;;;;;;4990068;28;20032;-53
2022/07/14 00:38:35;;;;;;;4.32;1.20;;;;;;;;;;4987553;28;20032;-52
2022/07/14 00:41:02;;;;;;;3.72;1.20;;;;;;;;;;4993154;28;20426;-54
2022/07/14 00:43:28;;;;;;;1.15;0.70;;;;;;;;;;4991519;28;20345;-55
2022/07/14 00:45:54;;;;;;;2.00;1.30;;;;;;;;;;4991068;28;20447;-52
2022/07/14 00:48:20;;;;;;;1.40;1.08;;;;;;;;;;4990501;28;20156;-53
2022/07/14 00:50:48;;;;;;;1.88;0.93;;;;;;;;;;4997257;28;20046;-54
2022/07/14 00:53:14;;;;;;;1.10;0.80;;;;;;;;;;5011106;28;20820;-53
2022/07/14 00:55:41;;;;;;;1.98;1.25;;;;;;;;;;5012455;28;20069;-52
2022/07/14 00:58:07;;;;;;;1.98;1.00;;;;;;;;;;5009619;28;20025;-52
2022/07/14 01:00:34;;;;;;;1.10;0.80;;;;;;;;;;5006573;28;20113;-55
2022/07/14 01:03:00;;;;;;;1.83;0.93;;;;;;;;;;5007549;28;20029;-54
2022/07/14 01:05:26;;;;;;;3.80;0.95;;;;;;;;;;5005902;28;20088;-54
2022/07/14 01:07:52;;;;;;;1.02;0.82;;;;;;;;;;5012234;28;20037;-56
2022/07/14 01:10:18;;;;;;;0.90;0.80;;;;;;;;;;5009392;28;20041;-55
2022/07/14 01:12:47;;;;;;;1.88;0.90;;;;;;;;;;5012545;28;20022;-54
2022/07/14 01:15:20;;;;;;;1.80;1.30;;;;;;;;;;5011797;28;20034;-56
2022/07/14 01:17:47;;;;;;;1.10;0.77;;;;;;;;;;5012806;28;20052;-56
2022/07/14 01:20:13;;;;;;;1.10;0.90;;;;;;;;;;5010949;28;20493;-55
2022/07/14 01:22:39;;;;;;;2.47;0.90;;;;;;;;;;5014552;28;20542;-55
2022/07/14 01:25:07;;;;;;;1.45;0.95;;;;;;;;;;5015683;28;20068;-55
2022/07/14 01:27:36;;;;;;;0.90;0.80;;;;;;;;;;5014187;28;20037;-53
2022/07/14 01:30:03;;;;;;;1.33;0.93;;;;;;;;;;5009987;28;20017;-54
2022/07/14 01:32:29;;;;;;;0.77;0.68;;;;;;;;;;5015835;28;20394;-51
2022/07/14 01:34:55;;;;;;;2.25;0.82;;;;;;;;;;5015276;28;20122;-55
2022/07/14 01:37:21;;;;;;;1.50;0.93;;;;;;;;;;5009914;28;20042;-55
2022/07/14 01:39:47;;;;;;;1.17;0.80;;;;;;;;;;5014946;28;20109;-54
2022/07/14 01:42:13;;;;;;;1.00;0.90;;;;;;;;;;5014406;28;20080;-54
2022/07/14 01:44:39;;;;;;;1.70;0.80;;;;;;;;;;5012685;28;20034;-51
2022/07/14 01:47:05;;;;;;;1.17;0.90;;;;;;;;;;5013211;28;20032;-52
2022/07/14 01:49:31;;;;;;;1.40;0.90;;;;;;;;;;5015079;28;20348;-52
2022/07/14 01:51:57;;;;;;;1.85;1.10;;;;;;;;;;4998863;28;20049;-55
2022/07/14 01:54:24;;;;;;;1.27;0.98;;;;;;;;;;4994487;28;20174;-52
2022/07/14 01:56:50;;;;;;;0.95;0.90;;;;;;;;;;4993541;28;20030;-54
2022/07/14 01:59:17;;;;;;;1.80;0.90;;;;;;;;;;4995801;28;20036;-54
2022/07/14 02:01:44;;;;;;;1.70;0.98;;;;;;;;;;4995028;28;20026;-48
2022/07/14 02:04:13;;;;;;;0.90;0.82;;;;;;;;;;4994305;28;20498;-55
2022/07/14 02:06:44;;;;;;;2.17;0.90;;;;;;;;;;4994736;28;20110;-54
2022/07/14 02:09:10;;;;;;;1.27;0.68;;;;;;;;;;4993221;28;20518;-55
2022/07/14 02:14:22;;;;;;;1.52;0.65;;;;;;;;;;4992515;28;20037;-55
2022/07/14 02:16:48;;;;;;;1.15;0.80;;;;;;;;;;4993150;28;20027;-55
2022/07/14 02:19:14;;;;;;;3.15;1.10;;;;;;;;;;4990839;28;20038;-54
2022/07/14 02:21:40;;;;;;;1.25;0.90;;;;;;;;;;4995435;28;20029;-55
2022/07/14 02:24:08;;;;;;;1.23;0.80;;;;;;;;;;4991812;28;20034;-48
2022/07/14 02:26:34;;;;;;;1.15;0.70;;;;;;;;;;4991968;28;20022;-52
2022/07/14 02:29:00;;;;;;;1.27;0.70;;;;;;;;;;4993844;28;20049;-53
2022/07/14 02:31:26;;;;;;;1.27;1.10;;;;;;;;;;4995493;28;20033;-52
2022/07/14 02:33:52;;;;;;;1.15;0.82;;;;;;;;;;4991879;28;20109;-55
2022/07/14 02:36:18;;;;;;;1.17;0.90;;;;;;;;;;4993789;28;20095;-53
2022/07/14 02:38:44;;;;;;;2.90;0.90;;;;;;;;;;4993705;28;20088;-54
2022/07/14 02:41:10;;;;;;;1.55;0.90;;;;;;;;;;4992093;28;20387;-47
2022/07/14 02:43:37;;;;;;;1.30;0.80;;;;;;;;;;4994369;28;20030;-51
2022/07/14 02:46:03;;;;;;;0.82;0.65;;;;;;;;;;4993311;28;20649;-52
2022/07/14 02:48:29;;;;;;;1.92;0.73;;;;;;;;;;4993579;28;20034;-54
2022/07/14 02:51:02;;;;;;;1.15;0.73;;;;;;;;;;4998903;28;20057;-54
2022/07/14 02:53:29;;;;;;;2.72;1.00;;;;;;;;;;5012269;28;20038;-55
2022/07/14 02:55:55;;;;;;;1.23;0.88;;;;;;;;;;5013228;28;20498;-55
2022/07/14 02:58:21;;;;;;;3.08;0.80;;;;;;;;;;5013594;28;20037;-55
2022/07/14 03:00:48;;;;;;;1.35;0.90;;;;;;;;;;5011811;28;20053;-55
2022/07/14 03:03:14;;;;;;;1.45;0.80;;;;;;;;;;5011635;28;20438;-56
2022/07/14 03:05:39;;;;;;;1.05;0.80;;;;;;;;;;5011052;28;20030;-55
2022/07/14 03:08:06;;;;;;;1.23;0.93;;;;;;;;;;5013496;28;20092;-52
2022/07/14 03:10:32;;;;;;;2.22;0.80;;;;;;;;;;5012120;28;20537;-54
2022/07/14 03:12:58;;;;;;;1.05;0.55;;;;;;;;;;5010536;28;20038;-54
2022/07/14 03:15:24;;;;;;;1.80;0.70;;;;;;;;;;5013116;28;20076;-54
2022/07/14 03:17:50;;;;;;;1.85;0.80;;;;;;;;;;5013876;28;20470;-55
2022/07/14 03:20:16;;;;;;;2.95;0.70;;;;;;;;;;5011618;28;20029;-52
2022/07/14 03:22:42;;;;;;;1.42;0.75;;;;;;;;;;5014003;28;20024;-55
2022/07/14 03:25:09;;;;;;;1.75;0.82;;;;;;;;;;5012271;28;20037;-50
2022/07/14 03:27:40;;;;;;;0.80;0.80;;;;;;;;;;5012262;28;20034;-54
2022/07/14 03:30:06;;;;;;;5.47;0.70;;;;;;;;;;5008891;28;20061;-55
2022/07/14 03:32:32;;;;;;;0.90;0.77;;;;;;;;;;5013397;28;20544;-53
2022/07/14 03:34:59;;;;;;;0.75;0.75;;;;;;;;;;5012707;28;20033;-50
2022/07/14 03:37:25;;;;;;;1.10;0.70;;;;;;;;;;5010792;28;20033;-48
2022/07/14 03:39:52;;;;;;;1.05;0.73;;;;;;;;;;5009571;28;20105;-56
2022/07/14 03:42:18;;;;;;;1.42;0.80;;;;;;;;;;5013421;28;20026;-54
2022/07/14 03:44:45;;;;;;;1.52;0.85;;;;;;;;;;5012544;28;20371;-56
2022/07/14 03:47:11;;;;;;;1.10;0.90;;;;;;;;;;5010117;28;20578;-54
2022/07/14 03:49:37;;;;;;;1.17;0.70;;;;;;;;;;5013640;28;20038;-55
2022/07/14 03:52:03;;;;;;;1.50;0.80;;;;;;;;;;4996187;28;20050;-54
2022/07/14 03:54:29;;;;;;;1.17;0.77;;;;;;;;;;4986528;28;20428;-55
2022/07/14 03:56:55;;;;;;;1.55;0.70;;;;;;;;;;4992707;28;20065;-55
2022/07/14 03:59:21;;;;;;;0.98;0.70;;;;;;;;;;4991939;28;20110;-49
2022/07/14 04:01:47;;;;;;;1.38;0.80;;;;;;;;;;4990406;28;20468;-55
2022/07/14 04:04:13;;;;;;;1.17;0.60;;;;;;;;;;4989429;28;20023;-54
2022/07/14 04:06:39;;;;;;;1.65;0.75;;;;;;;;;;4993896;28;20478;-54
2022/07/14 04:09:06;;;;;;;2.38;0.75;;;;;;;;;;4992201;28;20045;-48
2022/07/14 04:11:32;;;;;;;0.55;0.55;;;;;;;;;;4989444;28;20026;-54
2022/07/14 04:13:58;;;;;;;1.38;0.90;;;;;;;;;;4993111;28;20058;-54
2022/07/14 04:16:24;;;;;;;1.50;0.90;;;;;;;;;;4990982;28;20022;-54
2022/07/14 04:18:50;;;;;;;1.88;0.93;;;;;;;;;;4993362;28;20046;-55
2022/07/14 04:21:17;;;;;;;1.05;0.70;;;;;;;;;;4992269;28;20471;-53
2022/07/14 04:23:43;;;;;;;1.10;0.90;;;;;;;;;;4968949;28;20433;-53
2022/07/14 04:26:10;;;;;;;1.98;1.45;;;;;;;;;;4986404;28;20077;-53
2022/07/14 04:28:37;;;;;;;1.30;0.90;;;;;;;;;;4992374;28;20454;-54
2022/07/14 04:31:03;;;;;;;0.93;0.70;;;;;;;;;;4991543;28;20353;-51
2022/07/14 04:33:29;;;;;;;1.20;0.70;;;;;;;;;;4989596;28;20026;-54
2022/07/14 04:35:55;;;;;;;2.15;0.80;;;;;;;;;;4993326;28;20036;-55
2022/07/14 04:38:21;;;;;;;1.63;0.90;;;;;;;;;;4989174;28;20101;-54
2022/07/14 04:40:48;;;;;;;1.42;0.90;;;;;;;;;;4992771;28;20539;-54
2022/07/14 04:43:14;;;;;;;2.72;0.80;;;;;;;;;;4991409;28;20829;-54
2022/07/14 04:45:40;;;;;;;1.25;0.70;;;;;;;;;;4987885;28;20027;-55
2022/07/14 04:48:06;;;;;;;1.25;0.68;;;;;;;;;;4988776;28;20041;-53
2022/07/14 04:53:17;;;;;;;4.53;0.85;;;;;;;;;;5011773;28;20041;-54
2022/07/14 04:55:43;;;;;;;2.15;0.80;;;;;;;;;;5013522;28;20026;-54
2022/07/14 04:58:09;;;;;;;2.80;0.80;;;;;;;;;;5013532;28;20029;-53
2022/07/14 05:00:35;;;;;;;1.13;0.60;;;;;;;;;;5015814;28;20060;-53
2022/07/14 05:03:01;;;;;;;0.75;0.50;;;;;;;;;;5013280;28;20111;-55
2022/07/14 05:05:27;;;;;;;1.48;0.98;;;;;;;;;;5015696;28;20487;-54
2022/07/14 05:07:53;;;;;;;1.77;0.80;;;;;;;;;;5016466;28;20115;-54
2022/07/14 05:10:19;;;;;;;1.58;1.02;;;;;;;;;;5014688;28;20149;-52
2022/07/14 05:12:45;;;;;;;2.78;0.90;;;;;;;;;;5014990;28;20028;-51
2022/07/14 05:15:11;;;;;;;0.80;0.60;;;;;;;;;;5016451;28;20025;-54
2022/07/14 05:17:37;;;;;;;1.05;0.80;;;;;;;;;;5016165;28;20045;-55
2022/07/14 05:20:03;;;;;;;2.65;0.85;;;;;;;;;;5012311;28;20022;-55
2022/07/14 05:22:35;;;;;;;1.00;0.65;;;;;;;;;;5013614;28;20100;-48
2022/07/14 05:25:01;;;;;;;;;;;;;;;;;;4995528;28;20022;-54
2022/07/14 05:27:27;;;;;;;1.05;0.60;;;;;;;;;;5016388;28;19924;-52
2022/07/14 05:29:53;;;;;;;1.40;1.00;;;;;;;;;;5013240;28;20029;-54
2022/07/14 05:32:19;;;;;;;1.45;0.77;;;;;;;;;;5014003;28;20076;-53
2022/07/14 05:34:45;;;;;;;1.17;0.60;;;;;;;;;;4997003;28;20037;-53
2022/07/14 05:37:12;;;;;;;2.03;0.98;;;;;;;;;;5010546;28;20026;-49
2022/07/14 05:39:38;;;;;;;4.30;0.98;;;;;;;;;;5013178;28;20145;-58
2022/07/14 05:42:04;;;;;;;2.42;0.88;;;;;;;;;;5014051;28;20092;-58
2022/07/14 05:44:30;;;;;;;2.50;1.00;;;;;;;;;;5013384;28;20102;-52
2022/07/14 05:46:56;;;;;;;2.65;0.80;;;;;;;;;;5014062;28;20483;-56
2022/07/14 05:49:22;;;;;;;1.45;0.90;;;;;;;;;;5012323;28;20034;-55
2022/07/14 05:51:49;;;;;;;1.15;0.90;;;;;;;;;;4998922;28;20074;-58
2022/07/14 05:54:15;;;;;;;8.80;1.10;;;;;;;;;;4999656;28;20026;-57
2022/07/14 05:56:41;;;;;;;2.00;1.20;;;;;;;;;;4993675;28;20141;-58
2022/07/14 05:59:07;;;;;;;3.45;0.90;;;;;;;;;;4975657;28;20379;-56
2022/07/14 06:01:33;;;;;;;3.90;0.90;;;;;;;;;;4993329;28;20028;-58
2022/07/14 06:03:59;;;;;;;1.95;1.02;;;;;;;;;;4992560;28;20369;-59
2022/07/14 06:06:25;;;;;;;3.08;1.17;;;;;;;;;;4993176;28;20042;-59
2022/07/14 06:08:52;;;;;;;2.47;0.82;;;;;;;;;;4993192;28;20042;-59
2022/07/14 06:11:18;;;;;;;3.25;1.00;;;;;;;;;;4992952;28;20033;-58
2022/07/14 06:13:45;;;;;;;3.60;1.23;;;;;;;;;;4994202;28;20105;-58
2022/07/14 06:16:12;;;;;;;2.65;1.05;;;;;;;;;;4993030;28;20042;-53
2022/07/14 06:18:38;;;;;;;3.88;1.00;;;;;;;;;;4993140;28;20089;-59
2022/07/14 06:21:10;;;;;;;2.80;1.10;;;;;;;;;;4993942;28;20034;-59
2022/07/14 06:23:36;;;;;;;2.30;1.35;;;;;;;;;;4993717;28;20561;-59
2022/07/14 06:26:12;;;;;;;1.13;1.00;;;;;;;;;;4993665;28;20022;-58
2022/07/14 06:28:38;;;;;;;1.85;1.00;;;;;;;;;;4990375;28;20263;-58
2022/07/14 06:31:04;;;;;;;3.53;1.17;;;;;;;;;;4993629;28;20379;-58
2022/07/14 06:33:31;;;;;;;3.30;1.17;;;;;;;;;;4993053;28;20155;-58
2022/07/14 06:35:57;;;;;;;3.30;1.30;;;;;;;;;;4993388;28;20034;-59
2022/07/14 06:38:22;;;;;;;3.60;1.10;;;;;;;;;;4990011;28;20026;-57
2022/07/14 06:40:49;;;;;;;2.72;1.10;;;;;;;;;;4994096;28;20479;-57
2022/07/14 06:43:15;;;;;;;2.00;1.08;;;;;;;;;;4992597;28;20026;-58
2022/07/14 06:45:41;;;;;;;3.50;1.13;;;;;;;;;;4993283;28;20073;-58
2022/07/14 06:48:07;;;;;;;5.00;1.00;;;;;;;;;;4986847;28;20061;-57
2022/07/14 06:50:33;;;;;;;3.13;1.88;;;;;;;;;;4996884;28;20169;-58
2022/07/14 06:52:59;;;;;;;2.85;1.60;;;;;;;;;;5012635;28;20026;-57
2022/07/14 06:55:25;;;;;;;1.92;0.80;;;;;;;;;;5012290;28;20049;-59
2022/07/14 06:57:51;;;;;;;4.63;1.80;;;;;;;;;;5011959;28;20478;-58
2022/07/14 07:00:18;;;;;;;5.95;1.08;;;;;;;;;;5006511;28;20036;-57
2022/07/14 07:02:44;;;;;;;1.30;1.05;;;;;;;;;;5012338;28;20022;-56
2022/07/14 07:08:01;;;;;;;1.50;1.00;;;;;;;;;;5008903;28;20037;-58
2022/07/14 07:10:27;;;;;;;1.85;1.10;;;;;;;;;;5009659;28;20470;-58
2022/07/14 07:12:54;;;;;;;2.78;0.88;;;;;;;;;;5012912;28;20382;-58
2022/07/14 07:15:20;;;;;;;2.85;0.90;;;;;;;;;;5011796;28;20026;-58
2022/07/14 07:17:46;;;;;;;3.92;1.10;;;;;;;;;;5013266;28;20494;-57
2022/07/14 07:20:12;;;;;;;1.45;0.98;;;;;;;;;;5011971;28;20072;-51
2022/07/14 07:22:38;;;;;;;2.63;1.17;;;;;;;;;;5011651;28;20033;-53
2022/07/14 07:25:05;;;;;;;1.90;1.05;;;;;;;;;;5012119;28;20053;-57
2022/07/14 07:27:32;;;;;;;3.65;2.28;;;;;;;;;;5010670;28;20034;-57
2022/07/14 07:29:59;;;;;;;2.97;1.05;;;;;;;;;;5012234;28;20479;-58
2022/07/14 07:32:25;;;;;;;1.80;1.10;;;;;;;;;;5010991;28;20450;-57
2022/07/14 07:34:51;;;;;;;3.65;1.40;;;;;;;;;;5005541;28;20105;-58
2022/07/14 07:37:17;;;;;;;3.38;1.20;;;;;;;;;;4997341;28;20029;-56
2022/07/14 07:39:43;;;;;;;5.95;1.60;;;;;;;;;;5012689;28;20029;-56
2022/07/14 07:42:10;;;;;;;3.35;1.20;;;;;;;;;;5016084;28;20436;-57
2022/07/14 07:44:36;;;;;;;5.18;1.25;;;;;;;;;;5013791;28;20026;-57
2022/07/14 07:47:03;;;;;;;2.30;1.20;;;;;;;;;;5014762;28;20072;-58
2022/07/14 07:49:29;;;;;;;2.80;1.50;;;;;;;;;;5011038;28;20076;-57
2022/07/14 07:52:02;;;;;;;2.58;1.20;;;;;;;;;;5010978;28;20125;-53
2022/07/14 07:54:28;;;;;;;2.20;1.35;;;;;;;;;;5001034;28;20029;-57
2022/07/14 07:56:55;;;;;;;6.18;1.42;;;;;;;;;;5011906;28;20038;-56
2022/07/14 07:59:21;;;;;;;2.80;1.13;;;;;;;;;;5009289;28;20421;-57
2022/07/14 08:01:47;;;;;;;3.25;1.15;;;;;;;;;;5008910;28;20069;-57
2022/07/14 08:04:16;;;;;;;8.30;1.95;;;;;;;;;;5006310;28;20491;-56
2022/07/14 08:06:42;;;;;;;3.08;2.10;;;;;;;;;;5003342;28;20034;-57
2022/07/14 08:09:11;;;;;;;2.33;1.10;;;;;;;;;;5018312;28;20528;-57
2022/07/14 08:11:41;;;;;;;4.03;1.88;;;;;;;;;;5009312;28;20352;-57
2022/07/14 08:14:47;;;;;;;3.38;1.40;;;;;;;;;;5013231;28;20032;-57
2022/07/14 08:16:53;;;;;;;3.42;1.70;;;;;;;;;;5013111;28;20117;-57
2022/07/14 08:19:19;;;;;;;5.40;1.80;;;;;;;;;;5009782;28;20029;-57
2022/07/14 08:21:45;;;;;;;3.25;1.42;;;;;;;;;;5004626;28;20383;-57
2022/07/14 08:24:11;;;;;;;2.72;1.40;;;;;;;;;;5008681;28;20033;-51
2022/07/14 08:26:37;;;;;;;4.32;1.40;;;;;;;;;;5000275;28;20018;-56
2022/07/14 08:29:04;;;;;;;3.83;2.10;;;;;;;;;;5011884;28;20073;-57
2022/07/14 08:31:30;;;;;;;3.10;1.95;;;;;;;;;;5006820;28;20037;-57
2022/07/14 08:33:56;;;;;;;4.55;1.38;;;;;;;;;;5005167;28;20026;-57
2022/07/14 08:36:22;;;;;;;2.65;1.35;;;;;;;;;;5009797;28;20112;-57
2022/07/14 08:38:48;;;;;;;6.13;2.08;;;;;;;;;;5012417;28;20048;-57
2022/07/14 08:41:14;;;;;;;2.17;1.30;;;;;;;;;;5009124;28;20105;-54
2022/07/14 08:43:41;;;;;;;3.45;1.35;;;;;;;;;;5003341;28;20080;-57
2022/07/14 08:46:07;;;;;;;4.00;1.30;;;;;;;;;;5008757;28;20371;-57
2022/07/14 08:48:34;;;;;;;4.53;1.60;;;;;;;;;;5007012;28;20061;-55
2022/07/14 08:51:00;;;;;;;3.90;1.58;;;;;;;;;;5005269;28;20133;-56
2022/07/14 08:53:27;;;;;;;5.70;1.45;;;;;;;;;;4990399;28;20030;-57
2022/07/14 08:55:53;;;;;;;3.15;1.65;;;;;;;;;;4984586;28;20042;-57
2022/07/14 08:58:19;;;;;;;4.18;1.60;;;;;;;;;;4992365;28;20553;-57
2022/07/14 09:00:45;;;;;;;4.53;1.50;;;;;;;;;;4990648;28;20065;-58
2022/07/14 09:03:11;;;;;;;3.95;1.58;;;;;;;;;;4982006;28;20081;-53
2022/07/14 09:05:41;;;;;;;1.42;1.10;;;;;;;;;;4989890;28;20026;-58
2022/07/14 09:08:07;;;;;;;5.30;1.30;;;;;;;;;;4980885;28;20417;-54
2022/07/14 09:10:33;;;;;;;2.25;1.10;;;;;;;;;;4985956;28;20088;-58
2022/07/14 09:13:10;;;;;;;3.65;1.60;;;;;;;;;;4991219;28;20109;-58
2022/07/14 09:15:45;;;;;;;3.30;1.55;;;;;;;;;;4990596;28;20029;-58
2022/07/14 09:18:18;;;;;;;4.40;1.10;;;;;;;;;;4988996;28;20482;-53
2022/07/14 09:20:44;;;;;;;2.40;1.15;;;;;;;;;;4990604;28;20026;-58
2022/07/14 09:23:10;;;;;;;1.63;1.05;;;;;;;;;;4985528;28;20050;-58
2022/07/14 09:25:37;;;;;;;1.90;1.30;;;;;;;;;;4990030;28;20018;-58
2022/07/14 09:28:04;;;;;;;2.20;1.48;;;;;;;;;;4990962;28;20039;-58
2022/07/14 09:30:33;;;;;;;2.08;1.10;;;;;;;;;;4990208;28;20053;-57
2022/07/14 09:33:02;;;;;;;1.80;1.27;;;;;;;;;;4991401;28;20034;-58
2022/07/14 09:35:28;;;;;;;4.95;1.05;;;;;;;;;;4989505;28;20149;-57
2022/07/14 09:37:56;;;;;;;2.78;1.08;;;;;;;;;;4993219;28;20420;-58
2022/07/14 09:40:22;;;;;;;1.33;0.95;;;;;;;;;;4999555;28;20110;-58
2022/07/14 09:42:58;;;;;;;1.50;1.00;;;;;;;;;;4998998;28;20109;-58
2022/07/14 09:45:24;;;;;;;2.80;1.15;;;;;;;;;;4996860;28;20027;-57
2022/07/14 09:47:58;;;;;;;1.10;0.90;;;;;;;;;;4994341;28;20502;-58
2022/07/14 09:50:36;;;;;;;3.15;1.13;;;;;;;;;;4990408;28;20068;-57
2022/07/14 09:53:22;;;;;;;3.45;1.38;;;;;;;;;;4994279;28;20034;-55
2022/07/14 09:55:52;;;;;;;2.30;0.90;;;;;;;;;;4993735;28;20085;-56
2022/07/14 09:58:19;;;;;;;1.77;0.90;;;;;;;;;;4994834;28;20022;-56
2022/07/14 10:00:53;;;;;;;1.23;0.90;;;;;;;;;;4990399;28;20121;-57
2022/07/14 10:03:20;;;;;;;1.73;1.08;;;;;;;;;;4993497;28;20022;-55
2022/07/14 10:05:46;;;;;;;3.08;0.93;;;;;;;;;;4995976;28;20018;-56
2022/07/14 10:08:13;;;;;;;0.80;0.60;;;;;;;;;;4992066;28;20487;-49
2022/07/14 10:10:39;;;;;;;1.23;0.85;;;;;;;;;;4993853;28;20030;-52
2022/07/14 10:13:05;;;;;;;3.88;1.40;;;;;;;;;;4993994;28;20032;-55
2022/07/14 10:15:31;;;;;;;1.92;1.20;;;;;;;;;;4994873;28;20027;-56
2022/07/14 10:18:00;;;;;;;2.42;0.82;;;;;;;;;;4996258;28;20065;-56
2022/07/14 10:20:27;;;;;;;2.80;1.00;;;;;;;;;;4998688;28;20031;-56
2022/07/14 10:22:54;;;;;;;2.58;0.90;;;;;;;;;;4994953;28;20034;-55
2022/07/14 10:25:20;;;;;;;1.65;0.90;;;;;;;;;;4992939;28;20030;-57
2022/07/14 10:27:47;;;;;;;1.20;0.90;;;;;;;;;;4994316;28;20046;-57
2022/07/14 10:30:15;;;;;;;2.53;0.80;;;;;;;;;;4992909;28;20109;-49
2022/07/14 10:32:50;;;;;;;4.43;1.33;;;;;;;;;;4992146;28;20053;-54
2022/07/14 10:35:21;;;;;;;1.55;0.80;;;;;;;;;;4992616;28;20062;-55
2022/07/14 10:37:47;;;;;;;0.80;0.80;;;;;;;;;;4995708;28;20040;-56
2022/07/14 10:40:17;;;;;;;1.38;0.98;;;;;;;;;;4993309;28;20027;-50
2022/07/14 10:43:03;;;;;;;1.80;1.10;;;;;;;;;;4991696;28;20033;-55
2022/07/14 10:45:30;;;;;;;1.75;0.90;;;;;;;;;;4992425;28;20634;-56
2022/07/14 10:47:56;;;;;;;1.17;0.95;;;;;;;;;;4996523;28;20065;-56
2022/07/14 10:50:23;;;;;;;1.38;0.88;;;;;;;;;;5000196;28;20052;-55
2022/07/14 10:52:49;;;;;;;1.58;0.95;;;;;;;;;;5012112;28;20382;-55
2022/07/14 10:55:23;;;;;;;1.58;0.88;;;;;;;;;;5014744;28;20029;-54
2022/07/14 10:58:03;;;;;;;2.92;0.90;;;;;;;;;;5013929;28;20382;-56
2022/07/14 11:00:44;;;;;;;3.97;1.10;;;;;;;;;;5020098;28;20057;-57
2022/07/14 11:03:27;;;;;;;0.80;0.80;;;;;;;;;;5009469;28;20017;-57
2022/07/14 11:06:08;;;;;;;3.60;0.90;;;;;;;;;;5006510;28;20036;-57
2022/07/14 11:08:38;;;;;;;1.38;0.68;;;;;;;;;;5008718;28;20183;-57
2022/07/14 11:11:08;;;;;;;2.35;0.80;;;;;;;;;;5012704;28;20110;-54
2022/07/14 11:13:35;;;;;;;1.73;0.80;;;;;;;;;;5013559;28;20117;-57
2022/07/14 11:16:03;;;;;;;1.33;1.00;;;;;;;;;;5007652;28;20029;-55
2022/07/14 11:18:41;;;;;;;1.95;1.00;;;;;;;;;;5016739;28;20034;-57
2022/07/14 11:21:16;;;;;;;1.50;0.90;;;;;;;;;;5012339;28;20116;-55
2022/07/14 11:23:48;;;;;;;1.23;0.90;;;;;;;;;;5011182;28;20051;-57
2022/07/14 11:26:32;;;;;;;2.03;0.82;;;;;;;;;;4994058;28;20395;-50
2022/07/14 11:29:00;;;;;;;1.27;0.80;;;;;;;;;;5006854;28;20038;-57
2022/07/14 11:31:26;;;;;;;1.02;0.77;;;;;;;;;;5016766;28;20418;-56
2022/07/14 11:36:38;;;;;;;0.75;0.60;;;;;;;;;;5016523;28;20060;-57
2022/07/14 11:39:16;;;;;;;1.73;0.80;;;;;;;;;;5012837;28;20080;-57
2022/07/14 11:41:43;;;;;;;1.65;0.90;;;;;;;;;;5011330;28;20030;-56
2022/07/14 11:44:28;;;;;;;1.88;0.80;;;;;;;;;;5012266;28;20026;-56
2022/07/14 11:46:58;;;;;;;1.10;0.82;;;;;;;;;;5009479;28;20025;-57
2022/07/14 11:49:24;;;;;;;1.73;0.90;;;;;;;;;;5013409;28;20041;-56
2022/07/14 11:51:50;;;;;;;2.92;1.00;;;;;;;;;;4996155;28;20046;-56
2022/07/14 11:54:17;;;;;;;1.00;0.90;;;;;;;;;;4996292;28;20531;-57
2022/07/14 11:56:43;;;;;;;2.22;0.80;;;;;;;;;;4996837;28;20037;-57
2022/07/14 11:59:09;;;;;;;1.45;0.85;;;;;;;;;;4990663;28;20116;-57
2022/07/14 12:01:36;;;;;;;1.55;0.95;;;;;;;;;;4988679;28;20643;-57
2022/07/14 12:04:06;;;;;;;2.33;0.85;;;;;;;;;;4992112;28;20062;-56
2022/07/14 12:06:32;;;;;;;1.45;0.80;;;;;;;;;;4991191;28;20030;-57
2022/07/14 12:08:58;;;;;;;1.08;0.80;;;;;;;;;;4992798;28;20026;-56
2022/07/14 12:11:23;;;;;;;0.93;0.63;;;;;;;;;;4990257;28;20387;-56
2022/07/14 12:13:51;;;;;;;1.45;0.95;;;;;;;;;;4995273;28;20106;-55
2022/07/14 12:16:17;;;;;;;0.90;0.73;;;;;;;;;;4987329;28;20387;-56
2022/07/14 12:18:43;;;;;;;1.23;0.80;;;;;;;;;;4988848;28;20034;-57
2022/07/14 12:21:09;;;;;;;0.90;0.70;;;;;;;;;;4989987;28;20026;-55
2022/07/14 12:23:35;;;;;;;2.60;0.82;;;;;;;;;;4991058;28;20027;-56
2022/07/14 12:26:03;;;;;;;1.02;0.93;;;;;;;;;;4992174;28;20081;-57
2022/07/14 12:28:29;;;;;;;1.63;0.85;;;;;;;;;;4975560;28;20499;-57
2022/07/14 12:30:56;;;;;;;1.42;0.85;;;;;;;;;;4994081;28;20053;-57
2022/07/14 12:33:24;;;;;;;0.75;0.65;;;;;;;;;;4990075;28;20034;-57
2022/07/14 12:35:51;;;;;;;0.80;0.65;;;;;;;;;;4990722;28;20590;-57
2022/07/14 12:38:19;;;;;;;1.52;0.90;;;;;;;;;;4991507;28;20037;-57
2022/07/14 12:40:48;;;;;;;1.17;0.93;;;;;;;;;;4991845;28;20187;-57
2022/07/14 12:43:14;;;;;;;0.85;0.85;;;;;;;;;;4991179;28;20038;-51
2022/07/14 12:45:59;;;;;;;0.93;0.80;;;;;;;;;;4991489;28;20034;-57
2022/07/14 12:48:27;;;;;;;1.15;0.85;;;;;;;;;;4991844;28;20130;-57
2022/07/14 12:50:53;;;;;;;2.25;0.80;;;;;;;;;;4991016;28;20074;-56
2022/07/14 12:53:20;;;;;;;3.20;1.27;;;;;;;;;;4989831;28;20042;-56
2022/07/14 12:55:46;;;;;;;1.27;0.88;;;;;;;;;;4990685;28;20064;-57
2022/07/14 12:58:13;;;;;;;1.05;0.85;;;;;;;;;;4990916;28;20034;-51
2022/07/14 13:00:39;;;;;;;1.05;0.65;;;;;;;;;;4990935;28;20053;-56
2022/07/14 13:03:16;;;;;;;1.33;0.70;;;;;;;;;;4986088;28;20038;-57
2022/07/14 13:05:46;;;;;;;0.75;0.68;;;;;;;;;;4991693;28;20030;-57
2022/07/14 13:08:33;;;;;;;1.58;0.77;;;;;;;;;;4990138;28;20041;-53
2022/07/14 13:10:59;;;;;;;1.02;0.82;;;;;;;;;;4990181;28;20038;-57
2022/07/14 13:13:30;;;;;;;0.80;0.70;;;;;;;;;;4994757;28;20086;-56
2022/07/14 13:16:15;;;;;;;1.27;0.90;;;;;;;;;;4992962;28;20022;-57
2022/07/14 13:19:00;;;;;;;1.00;0.75;;;;;;;;;;4997056;28;20030;-56
2022/07/14 13:21:45;;;;;;;1.15;0.80;;;;;;;;;;4995784;28;20036;-57
2022/07/14 13:24:15;;;;;;;0.95;0.85;;;;;;;;;;4993336;28;20023;-54
2022/07/14 13:26:41;;;;;;;0.80;0.80;;;;;;;;;;4995225;28;20078;-56
2022/07/14 13:29:07;;;;;;;4.15;0.80;;;;;;;;;;4996542;28;20475;-57
2022/07/14 13:31:33;;;;;;;0.90;0.73;;;;;;;;;;4992280;28;20031;-57
2022/07/14 13:34:01;;;;;;;1.40;0.98;;;;;;;;;;4992881;28;20124;-57
2022/07/14 13:36:28;;;;;;;0.93;0.80;;;;;;;;;;4997303;28;20029;-57
2022/07/14 13:38:54;;;;;;;0.80;0.60;;;;;;;;;;4996740;28;20068;-57
2022/07/14 13:41:20;;;;;;;1.40;0.88;;;;;;;;;;4992256;28;20422;-56
2022/07/14 13:43:46;;;;;;;2.53;1.00;;;;;;;;;;4996367;28;20153;-56
2022/07/14 13:46:13;;;;;;;1.20;0.57;;;;;;;;;;4998636;28;20026;-50
2022/07/14 13:48:39;;;;;;;2.70;0.85;;;;;;;;;;4992392;28;20492;-57
2022/07/14 13:53:51;;;;;;;1.42;0.70;;;;;;;;;;5012397;28;20033;-56
2022/07/14 13:56:17;;;;;;;1.50;0.80;;;;;;;;;;5011993;28;20030;-54
2022/07/14 13:58:43;;;;;;;0.80;0.60;;;;;;;;;;5017189;28;20037;-57
2022/07/14 14:01:09;;;;;;;2.10;0.85;;;;;;;;;;5013783;28;20161;-56
2022/07/14 14:03:37;;;;;;;2.08;0.80;;;;;;;;;;5013784;28;20088;-56
2022/07/14 14:06:05;;;;;;;1.85;0.80;;;;;;;;;;5006998;28;20482;-56
2022/07/14 14:08:32;;;;;;;0.75;0.70;;;;;;;;;;5008550;28;20033;-56
2022/07/14 14:10:59;;;;;;;1.15;0.73;;;;;;;;;;4997896;28;20034;-56
2022/07/14 14:13:28;;;;;;;1.05;0.60;;;;;;;;;;5011268;28;20025;-55
2022/07/14 14:15:54;;;;;;;0.80;0.80;;;;;;;;;;5012470;28;20049;-56
2022/07/14 14:18:21;;;;;;;1.38;0.68;;;;;;;;;;5019251;28;20077;-56
2022/07/14 14:20:47;;;;;;;1.48;0.70;;;;;;;;;;5014475;28;20096;-55
2022/07/14 14:23:14;;;;;;;1.23;0.88;;;;;;;;;;5012690;28;20041;-49
2022/07/14 14:25:40;;;;;;;1.00;0.70;;;;;;;;;;5012705;28;20038;-56
2022/07/14 14:28:06;;;;;;;1.17;0.70;;;;;;;;;;5007309;28;20068;-55
2022/07/14 14:30:35;;;;;;;0.98;0.70;;;;;;;;;;5012637;28;20025;-56
2022/07/14 14:33:02;;;;;;;2.50;0.80;;;;;;;;;;5015129;28;20417;-55
2022/07/14 14:35:29;;;;;;;1.00;0.70;;;;;;;;;;5012993;28;20037;-56
2022/07/14 14:37:55;;;;;;;0.85;0.75;;;;;;;;;;5013652;28;20029;-56
2022/07/14 14:40:21;;;;;;;1.38;0.70;;;;;;;;;;5012838;28;20036;-55
2022/07/14 14:42:47;;;;;;;1.20;0.60;;;;;;;;;;5012761;28;20033;-56
2022/07/14 14:45:13;;;;;;;2.25;0.90;;;;;;;;;;5013333;28;20029;-51
2022/07/14 14:47:39;;;;;;;1.25;1.15;;;;;;;;;;5012990;28;20034;-56
2022/07/14 14:50:06;;;;;;;2.63;0.80;;;;;;;;;;5016131;28;20034;-55
2022/07/14 14:52:32;;;;;;;1.55;1.00;;;;;;;;;;5011868;28;20029;-56
2022/07/14 14:54:58;;;;;;;1.25;0.60;;;;;;;;;;5013402;28;20030;-56
2022/07/14 14:57:24;;;;;;;0.98;0.80;;;;;;;;;;5011286;28;20026;-57
2022/07/14 14:59:50;;;;;;;1.08;0.95;;;;;;;;;;5011375;28;20040;-57